Time;durP1;ratioP1;P1;durP2;ratioP2;P2;SDS_P1;SDS_P2;PMS_P1;PMS_P2;Temp;Humidity;BMP_temperature;BMP_pressure;BME280_temperature;BME280_humidity;BME280_pressure;Samples;Min_cycle;Max_cycle;Signal;HPM_P1;HPM_P2
2022/02/28 00:01:36;;;;;;;35.50;20.90;;;;;;;-1.55;81.62;98003.13;107521;1273;41759;-74
2022/02/28 00:04:07;;;;;;;32.00;20.70;;;;;;;-1.57;81.71;98002.74;107557;1273;37418;-74
2022/02/28 00:06:38;;;;;;;40.30;22.50;;;;;;;-1.58;81.64;98005.25;107516;1271;50170;-74
2022/02/28 00:09:08;;;;;;;33.50;21.50;;;;;;;-1.59;82.07;98006.76;107427;1273;82568;-74
2022/02/28 00:11:39;;;;;;;38.50;22.80;;;;;;;-1.59;81.71;98006.34;107521;1273;43157;-74
2022/02/28 00:14:10;;;;;;;36.70;23.00;;;;;;;-1.65;81.73;98004.38;107537;1273;58122;-74
2022/02/28 00:16:41;;;;;;;37.60;21.30;;;;;;;-1.69;81.80;98001.52;107510;1273;47647;-74
2022/02/28 00:19:12;;;;;;;38.80;22.60;;;;;;;-1.71;81.81;98000.87;107503;1273;45668;-74
2022/02/28 00:21:43;;;;;;;38.20;22.90;;;;;;;-1.70;81.93;97995.89;107527;1273;36562;-74
2022/02/28 00:24:15;;;;;;;37.50;23.20;;;;;;;-1.67;81.94;97998.63;107559;1273;33418;-74
2022/02/28 00:26:46;;;;;;;34.40;21.40;;;;;;;-1.64;82.10;98001.48;107566;1273;29815;-74
2022/02/28 00:29:17;;;;;;;38.30;22.40;;;;;;;-1.64;81.92;97994.78;107501;1274;42032;-74
2022/02/28 00:31:48;;;;;;;38.00;23.30;;;;;;;-1.68;82.01;97996.37;107495;1273;46801;-74
2022/02/28 00:34:20;;;;;;;40.70;22.70;;;;;;;-1.69;81.86;97993.00;107502;1273;42417;-74
2022/02/28 00:36:51;;;;;;;40.00;23.60;;;;;;;-1.71;81.90;97985.79;107431;1273;67086;-74
2022/02/28 00:39:22;;;;;;;35.80;22.50;;;;;;;-1.74;81.78;97988.33;107481;1273;37228;-74
2022/02/28 00:41:53;;;;;;;35.60;21.80;;;;;;;-1.73;81.77;97986.94;107535;1273;31256;-74
2022/02/28 00:44:24;;;;;;;38.20;24.00;;;;;;;-1.73;81.88;97986.15;107486;1273;48978;-75
2022/02/28 00:46:55;;;;;;;37.90;24.60;;;;;;;-1.75;81.70;97984.15;107518;1273;47623;-74
2022/02/28 00:49:26;;;;;;;35.50;21.00;;;;;;;-1.76;81.71;97986.69;107504;1273;42514;-74
2022/02/28 00:51:57;;;;;;;40.70;25.40;;;;;;;-1.80;81.89;97985.38;107541;1273;46520;-74
2022/02/28 00:54:28;;;;;;;37.90;23.50;;;;;;;-1.82;81.91;97983.78;107527;1273;31811;-74
2022/02/28 00:57:00;;;;;;;40.20;23.70;;;;;;;-1.83;81.72;97980.70;107524;1273;36592;-74
2022/02/28 00:59:31;;;;;;;37.50;23.20;;;;;;;-1.89;81.74;97980.28;107534;1273;86907;-74
2022/02/28 01:02:02;;;;;;;38.50;23.90;;;;;;;-1.96;81.92;97981.92;107497;1272;53636;-74
2022/02/28 01:04:32;;;;;;;41.10;24.00;;;;;;;-2.01;81.83;97977.47;107514;1273;42301;-74
2022/02/28 01:07:04;;;;;;;40.10;23.30;;;;;;;-1.97;82.26;97972.70;107462;1273;57239;-74
2022/02/28 01:09:35;;;;;;;38.10;22.10;;;;;;;-1.95;82.25;97973.48;107484;1273;38168;-74
2022/02/28 01:12:07;;;;;;;39.50;22.10;;;;;;;-1.93;82.08;97969.80;107551;1272;42512;-74
2022/02/28 01:14:39;;;;;;;34.00;21.30;;;;;;;-1.92;81.81;97964.70;107636;1273;31554;-74
2022/02/28 01:17:10;;;;;;;29.60;19.80;;;;;;;-1.95;81.57;97965.17;107474;1273;35586;-74
2022/02/28 01:19:41;;;;;;;38.00;21.70;;;;;;;-1.98;81.60;97959.79;107434;1272;32480;-74
2022/02/28 01:22:12;;;;;;;32.50;20.40;;;;;;;-2.01;81.58;97963.25;107549;1273;35920;-75
2022/02/28 01:24:43;;;;;;;34.50;19.70;;;;;;;-2.05;81.55;97963.88;107511;1273;33914;-74
2022/02/28 01:27:14;;;;;;;33.90;20.00;;;;;;;-2.07;81.38;97959.17;107581;1272;35859;-74
2022/02/28 01:29:45;;;;;;;29.00;17.50;;;;;;;-2.09;81.50;97955.26;107495;1273;45463;-74
2022/02/28 01:32:16;;;;;;;32.20;17.80;;;;;;;-2.09;81.46;97951.33;107563;1273;34979;-74
2022/02/28 01:34:47;;;;;;;31.00;18.10;;;;;;;-2.12;81.41;97947.02;107593;1273;42544;-74
2022/02/28 01:37:18;;;;;;;27.50;18.20;;;;;;;-2.14;81.35;97944.00;107570;1273;46250;-74
2022/02/28 01:39:49;;;;;;;35.40;18.90;;;;;;;-2.16;81.32;97943.69;107467;1272;47132;-74
2022/02/28 01:42:20;;;;;;;31.70;19.70;;;;;;;-2.17;81.45;97944.50;107524;1272;45122;-74
2022/02/28 01:44:51;;;;;;;30.50;17.90;;;;;;;-2.19;81.10;97945.59;107564;1273;30227;-75
2022/02/28 01:47:22;;;;;;;30.60;19.00;;;;;;;-2.22;81.17;97945.60;107502;1273;42701;-76
2022/02/28 01:49:53;;;;;;;29.80;18.40;;;;;;;-2.19;81.16;97953.21;107505;1273;31615;-75
2022/02/28 01:52:27;;;;;;;29.50;18.70;;;;;;;-2.15;81.32;97952.45;107494;1273;42158;-75
2022/02/28 01:54:57;;;;;;;34.10;19.20;;;;;;;-2.09;81.26;97951.80;107552;1273;31444;-75
2022/02/28 01:57:28;;;;;;;31.70;18.50;;;;;;;-2.06;81.20;97952.68;107511;1272;45926;-75
2022/02/28 02:00:00;;;;;;;27.10;16.70;;;;;;;-2.08;80.95;97949.14;107523;1272;31929;-75
2022/02/28 02:02:30;;;;;;;25.90;16.10;;;;;;;-2.07;80.91;97946.34;107560;1272;30245;-75
2022/02/28 02:05:02;;;;;;;27.30;16.40;;;;;;;-2.07;80.82;97941.50;107507;1273;44798;-75
2022/02/28 02:07:33;;;;;;;29.40;17.20;;;;;;;-2.08;80.64;97941.36;107394;1273;200891;-75
2022/02/28 02:10:07;;;;;;;34.50;18.60;;;;;;;-2.09;80.61;97938.79;107485;1273;48477;-75
2022/02/28 02:12:38;;;;;;;31.80;17.90;;;;;;;-2.09;80.57;97934.63;107491;1273;45445;-75
2022/02/28 02:15:12;;;;;;;31.80;19.60;;;;;;;-2.10;80.44;97928.69;107467;1273;41541;-75
2022/02/28 02:17:43;;;;;;;33.10;20.10;;;;;;;-2.10;80.12;97925.90;107496;1273;52435;-75
2022/02/28 02:20:34;;;;;;;31.00;18.00;;;;;;;-2.11;80.27;97929.88;107478;1273;72935;-75
2022/02/28 02:23:09;;;;;;;30.90;18.00;;;;;;;-2.15;80.06;97927.13;107678;1273;39138;-75
2022/02/28 02:25:40;;;;;;;23.70;16.30;;;;;;;-2.17;80.05;97925.66;107474;1274;101322;-75
2022/02/28 02:28:14;;;;;;;30.80;17.60;;;;;;;-2.17;80.17;97921.64;107518;1273;35990;-75
2022/02/28 02:30:51;;;;;;;30.20;17.90;;;;;;;-2.17;80.11;97919.20;107547;1273;34008;-75
2022/02/28 02:33:23;;;;;;;29.00;17.40;;;;;;;-2.19;80.13;97920.09;107538;1273;34583;-75
2022/02/28 02:35:56;;;;;;;31.30;17.50;;;;;;;-2.24;79.93;97923.25;107573;1273;31666;-75
2022/02/28 02:38:28;;;;;;;27.10;15.50;;;;;;;-2.27;80.04;97930.48;107504;1273;45467;-75
2022/02/28 02:40:59;;;;;;;28.10;16.40;;;;;;;-2.25;80.19;97930.65;107406;1273;45517;-75
2022/02/28 02:43:30;;;;;;;30.30;15.40;;;;;;;-2.28;80.05;97931.00;107484;1274;34105;-75
2022/02/28 02:46:01;;;;;;;27.20;15.10;;;;;;;-2.32;80.20;97925.57;107409;1275;40397;-75
2022/02/28 02:48:32;;;;;;;26.20;15.00;;;;;;;-2.34;80.21;97923.33;107509;1273;39684;-75
2022/02/28 02:51:03;;;;;;;21.40;14.00;;;;;;;-2.37;80.05;97925.88;107496;1273;40525;-75
2022/02/28 02:53:34;;;;;;;24.60;14.60;;;;;;;-2.41;79.98;97921.21;107535;1273;46238;-75
2022/02/28 02:56:05;;;;;;;21.20;13.50;;;;;;;-2.43;79.88;97924.36;107528;1274;36536;-75
2022/02/28 02:58:36;;;;;;;21.60;14.10;;;;;;;-2.43;79.86;97931.00;107574;1274;30175;-75
2022/02/28 03:01:07;;;;;;;24.40;13.80;;;;;;;-2.43;80.01;97928.62;107509;1275;34131;-75
2022/02/28 03:03:38;;;;;;;24.10;13.90;;;;;;;-2.47;79.64;97927.08;107520;1274;33594;-75
2022/02/28 03:06:09;;;;;;;26.40;13.80;;;;;;;-2.51;79.86;97929.77;107522;1274;44482;-75
2022/02/28 03:08:40;;;;;;;23.80;13.60;;;;;;;-2.51;79.75;97934.52;107497;1273;34183;-75
2022/02/28 03:11:11;;;;;;;25.40;13.70;;;;;;;-2.53;79.56;97937.47;107477;1273;42118;-75
2022/02/28 03:13:42;;;;;;;26.70;13.80;;;;;;;-2.54;79.82;97937.26;107514;1274;33127;-75
2022/02/28 03:16:12;;;;;;;25.50;12.80;;;;;;;-2.55;79.63;97942.95;107520;1273;37255;-75
2022/02/28 03:18:43;;;;;;;23.20;12.80;;;;;;;-2.55;79.75;97942.48;107504;1273;35978;-75
2022/02/28 03:21:14;;;;;;;22.60;13.20;;;;;;;-2.53;79.74;97941.81;107514;1275;34649;-75
2022/02/28 03:23:45;;;;;;;22.70;13.30;;;;;;;-2.53;79.72;97946.84;107603;1273;32725;-74
2022/02/28 03:26:16;;;;;;;19.40;11.60;;;;;;;-2.57;79.52;97946.77;107567;1274;39287;-74
2022/02/28 03:28:47;;;;;;;24.30;12.90;;;;;;;-2.59;79.52;97944.66;107492;1273;84444;-75
2022/02/28 03:31:18;;;;;;;23.30;13.10;;;;;;;-2.60;79.47;97943.71;107550;1273;35266;-75
2022/02/28 03:33:49;;;;;;;23.50;13.30;;;;;;;-2.61;79.50;97939.54;107533;1273;31368;-75
2022/02/28 03:36:20;;;;;;;23.40;12.80;;;;;;;-2.62;79.56;97938.79;107458;1273;53279;-75
2022/02/28 03:38:51;;;;;;;22.10;12.80;;;;;;;-2.62;79.66;97938.73;107451;1273;43020;-75
2022/02/28 03:41:22;;;;;;;22.60;11.80;;;;;;;-2.63;79.60;97938.70;107507;1273;31065;-75
2022/02/28 03:43:53;;;;;;;21.40;12.80;;;;;;;-2.64;79.53;97939.55;107517;1273;35954;-75
2022/02/28 03:46:24;;;;;;;26.80;13.00;;;;;;;-2.66;79.57;97944.57;107561;1274;35851;-75
2022/02/28 03:48:55;;;;;;;22.90;12.20;;;;;;;-2.67;79.69;97937.40;107531;1274;32108;-75
2022/02/28 03:51:26;;;;;;;21.50;12.50;;;;;;;-2.66;79.75;97930.94;107522;1273;34611;-74
2022/02/28 03:53:57;;;;;;;20.90;11.80;;;;;;;-2.66;79.56;97933.28;107535;1273;74308;-75
2022/02/28 03:56:28;;;;;;;22.10;12.90;;;;;;;-2.66;79.67;97932.60;107516;1273;44251;-75
2022/02/28 03:58:59;;;;;;;21.30;12.40;;;;;;;-2.69;79.48;97930.63;107488;1273;45376;-75
2022/02/28 04:01:30;;;;;;;22.70;12.50;;;;;;;-2.71;79.57;97931.25;107532;1270;39920;-75
2022/02/28 04:04:01;;;;;;;23.70;12.70;;;;;;;-2.72;79.60;97930.60;107540;1273;39702;-74
2022/02/28 04:06:33;;;;;;;21.30;12.80;;;;;;;-2.73;79.49;97930.05;107491;1273;34674;-75
2022/02/28 04:09:05;;;;;;;24.20;12.20;;;;;;;-2.75;79.50;97925.81;107505;1273;31780;-74
2022/02/28 04:11:36;;;;;;;22.40;12.30;;;;;;;-2.76;79.51;97922.11;107510;1273;41214;-75
2022/02/28 04:14:07;;;;;;;19.50;11.50;;;;;;;-2.75;79.61;97921.50;107556;1273;34854;-75
2022/02/28 04:16:38;;;;;;;21.90;12.40;;;;;;;-2.78;79.69;97927.63;107515;1273;78494;-75
2022/02/28 04:19:09;;;;;;;19.10;12.10;;;;;;;-2.78;79.63;97930.23;107494;1273;39379;-75
2022/02/28 04:21:40;;;;;;;19.70;11.00;;;;;;;-2.78;79.74;97926.59;107512;1273;41342;-75
2022/02/28 04:24:11;;;;;;;18.60;11.70;;;;;;;-2.80;79.88;97931.66;107498;1274;46631;-75
2022/02/28 04:26:44;;;;;;;19.50;11.20;;;;;;;-2.82;79.67;97937.24;107468;1274;48072;-75
2022/02/28 04:29:15;;;;;;;21.80;13.10;;;;;;;-2.82;79.89;97942.27;107538;1274;33378;-75
2022/02/28 04:31:46;;;;;;;18.80;12.00;;;;;;;-2.84;79.72;97947.42;107527;1273;41666;-74
2022/02/28 04:34:17;;;;;;;21.40;12.00;;;;;;;-2.84;79.97;97947.81;107582;1273;29425;-75
2022/02/28 04:36:48;;;;;;;25.50;12.00;;;;;;;-2.86;80.00;97947.84;107631;1274;41822;-74
2022/02/28 04:39:19;;;;;;;22.80;13.00;;;;;;;-2.88;79.89;97949.02;107492;1274;42989;-74
2022/02/28 04:41:50;;;;;;;20.70;12.40;;;;;;;-2.91;80.01;97950.61;107497;1273;35443;-75
2022/02/28 04:44:21;;;;;;;21.50;12.40;;;;;;;-2.92;80.18;97948.34;107516;1273;42880;-75
2022/02/28 04:46:52;;;;;;;18.60;10.90;;;;;;;-2.93;80.10;97948.70;107538;1272;33270;-75
2022/02/28 04:49:23;;;;;;;21.00;12.10;;;;;;;-2.97;80.21;97948.84;107537;1274;31632;-75
2022/02/28 04:51:54;;;;;;;20.10;11.40;;;;;;;-2.98;80.02;97952.40;107505;1273;42179;-74
2022/02/28 04:54:25;;;;;;;18.00;11.40;;;;;;;-2.95;80.26;97954.42;107549;1274;35913;-74
2022/02/28 04:56:56;;;;;;;20.20;11.80;;;;;;;-2.95;80.25;97953.04;107556;1274;38970;-75
2022/02/28 04:59:27;;;;;;;19.60;11.50;;;;;;;-2.97;80.31;97950.19;107533;1273;29350;-75
2022/02/28 05:01:58;;;;;;;22.00;11.80;;;;;;;-2.98;80.33;97951.55;107523;1274;47832;-75
2022/02/28 05:04:29;;;;;;;19.30;11.90;;;;;;;-3.01;80.28;97954.25;107532;1274;35348;-75
2022/02/28 05:06:59;;;;;;;20.70;12.00;;;;;;;-3.01;80.42;97957.17;107536;1274;33500;-75
2022/02/28 05:09:31;;;;;;;18.40;11.20;;;;;;;-3.00;80.43;97955.38;107487;1274;35016;-75
2022/02/28 05:12:01;;;;;;;20.10;11.70;;;;;;;-3.02;80.65;97957.95;107551;1274;32331;-75
2022/02/28 05:14:33;;;;;;;20.00;12.10;;;;;;;-3.03;80.48;97959.14;107535;1273;42168;-73
2022/02/28 05:17:04;;;;;;;18.40;11.20;;;;;;;-3.06;80.41;97956.35;107548;1273;41998;-75
2022/02/28 05:19:35;;;;;;;22.00;11.50;;;;;;;-3.09;80.50;97957.52;107513;1274;34838;-75
2022/02/28 05:22:06;;;;;;;19.00;11.40;;;;;;;-3.15;80.51;97958.98;107516;1273;32664;-75
2022/02/28 05:24:37;;;;;;;19.90;11.10;;;;;;;-3.16;80.38;97961.61;107558;1274;30412;-75
2022/02/28 05:27:09;;;;;;;21.90;11.80;;;;;;;-3.16;80.60;97965.05;107476;1273;45210;-75
2022/02/28 05:29:40;;;;;;;17.90;11.30;;;;;;;-3.17;80.52;97960.92;107471;1274;48345;-74
2022/02/28 05:32:12;;;;;;;19.20;11.00;;;;;;;-3.18;80.54;97968.19;107448;1272;50350;-75
2022/02/28 05:34:43;;;;;;;17.80;11.10;;;;;;;-3.16;80.62;97972.83;107500;1274;32644;-75
2022/02/28 05:37:14;;;;;;;18.10;10.80;;;;;;;-3.13;80.71;97973.90;107521;1274;31575;-75
2022/02/28 05:39:45;;;;;;;17.90;11.00;;;;;;;-3.13;80.77;97973.51;107498;1274;41780;-75
2022/02/28 05:42:16;;;;;;;20.30;11.40;;;;;;;-3.12;80.65;97972.40;107508;1274;38400;-75
2022/02/28 05:44:47;;;;;;;20.80;11.30;;;;;;;-3.12;80.78;97970.95;107521;1274;44129;-75
2022/02/28 05:47:18;;;;;;;18.70;10.90;;;;;;;-3.11;80.67;97973.95;107542;1274;39900;-75
2022/02/28 05:49:49;;;;;;;20.70;11.80;;;;;;;-3.09;80.79;97978.81;107485;1274;48717;-74
2022/02/28 05:52:20;;;;;;;18.50;11.10;;;;;;;-3.05;80.81;97981.35;107541;1274;41314;-75
2022/02/28 05:54:52;;;;;;;17.20;9.70;;;;;;;-3.02;80.65;97984.27;107513;1273;33941;-75
2022/02/28 05:57:22;;;;;;;16.30;10.00;;;;;;;-3.02;80.61;97981.55;107461;1273;44631;-76
2022/02/28 05:59:53;;;;;;;18.90;9.50;;;;;;;-3.03;80.58;97986.15;107499;1272;35235;-76
2022/02/28 06:02:24;;;;;;;16.50;9.90;;;;;;;-3.05;80.49;97986.66;107456;1274;38926;-75
2022/02/28 06:04:55;;;;;;;20.90;10.60;;;;;;;-3.05;80.61;97986.66;107533;1274;39291;-75
2022/02/28 06:07:26;;;;;;;16.60;10.20;;;;;;;-3.03;80.57;97988.91;107512;1273;44347;-75
2022/02/28 06:09:57;;;;;;;19.50;10.50;;;;;;;-3.02;80.39;97991.02;107494;1274;41115;-75
2022/02/28 06:12:28;;;;;;;19.30;10.30;;;;;;;-2.97;80.67;97994.36;107513;1273;42674;-75
2022/02/28 06:14:59;;;;;;;18.40;10.40;;;;;;;-2.92;80.52;97995.30;107560;1273;34857;-75
2022/02/28 06:17:32;;;;;;;18.90;10.20;;;;;;;-2.90;80.43;97999.00;107474;1273;36637;-75
2022/02/28 06:20:04;;;;;;;17.90;10.60;;;;;;;-2.88;80.47;97991.54;107503;1274;30910;-75
2022/02/28 06:22:35;;;;;;;13.90;9.60;;;;;;;-2.85;80.55;97993.41;107490;1274;40675;-75
2022/02/28 06:25:07;;;;;;;15.40;10.10;;;;;;;-2.83;80.36;97996.70;107543;1274;33901;-75
2022/02/28 06:27:38;;;;;;;19.20;11.10;;;;;;;-2.83;80.27;98000.36;107543;1273;32103;-75
2022/02/28 06:30:11;;;;;;;16.50;10.00;;;;;;;-2.80;80.37;98002.66;107482;1274;43124;-75
2022/02/28 06:32:42;;;;;;;15.50;9.30;;;;;;;-2.77;80.38;98004.02;107651;1274;56305;-75
2022/02/28 06:35:13;;;;;;;14.40;9.10;;;;;;;-2.72;80.31;98009.48;107489;1274;44387;-75
2022/02/28 06:37:44;;;;;;;18.00;9.30;;;;;;;-2.68;80.21;98013.13;107523;1274;32451;-75
2022/02/28 06:40:15;;;;;;;17.40;9.40;;;;;;;-2.69;80.07;98020.30;107402;1274;40836;-75
2022/02/28 06:42:47;;;;;;;41.70;18.10;;;;;;;-2.67;80.11;98017.83;107529;1274;33572;-75
2022/02/28 06:45:18;;;;;;;19.90;11.20;;;;;;;-2.67;79.97;98023.89;107569;1274;36277;-75
2022/02/28 06:47:48;;;;;;;17.00;10.80;;;;;;;-2.76;79.85;98023.62;107518;1274;50039;-74
2022/02/28 06:50:21;;;;;;;142.30;63.80;;;;;;;-2.79;80.00;98025.53;107511;1274;31373;-74
2022/02/28 06:52:52;;;;;;;39.90;20.50;;;;;;;-2.77;80.11;98027.55;107519;1274;34182;-75
2022/02/28 06:55:23;;;;;;;16.50;10.10;;;;;;;-2.79;79.87;98032.23;107508;1272;43910;-75
2022/02/28 06:57:54;;;;;;;15.90;9.90;;;;;;;-2.79;80.06;98036.11;107439;1274;68021;-75
2022/02/28 07:00:25;;;;;;;16.40;10.60;;;;;;;-2.74;80.17;98036.79;107464;1274;31932;-74
2022/02/28 07:02:56;;;;;;;15.60;9.10;;;;;;;-2.71;80.22;98040.90;107482;1274;36411;-75
2022/02/28 07:05:27;;;;;;;17.30;9.60;;;;;;;-2.75;79.96;98046.55;107529;1274;33888;-75
2022/02/28 07:07:58;;;;;;;16.80;9.40;;;;;;;-2.78;79.96;98049.31;107540;1274;36368;-75
2022/02/28 07:10:29;;;;;;;15.50;9.40;;;;;;;-2.82;79.75;98050.26;107393;1274;32988;-75
2022/02/28 07:13:00;;;;;;;19.30;10.00;;;;;;;-2.84;79.85;98051.94;107505;1274;39666;-74
2022/02/28 07:15:31;;;;;;;22.40;12.70;;;;;;;-2.84;79.94;98053.33;107529;1273;44330;-75
2022/02/28 07:18:02;;;;;;;14.30;9.60;;;;;;;-2.81;80.01;98055.68;107489;1273;74450;-75
2022/02/28 07:20:33;;;;;;;16.50;10.00;;;;;;;-2.83;79.94;98058.27;107480;1274;37084;-74
2022/02/28 07:23:05;;;;;;;19.40;10.40;;;;;;;-2.82;79.69;98056.08;107488;1274;38906;-74
2022/02/28 07:25:37;;;;;;;16.80;9.90;;;;;;;-2.79;79.89;98057.16;107521;1273;52603;-75
2022/02/28 07:28:08;;;;;;;20.10;11.30;;;;;;;-2.73;80.00;98058.55;107515;1273;35124;-75
2022/02/28 07:30:39;;;;;;;19.20;11.90;;;;;;;-2.62;80.12;98057.88;107441;1273;33835;-75
2022/02/28 07:33:10;;;;;;;18.60;11.70;;;;;;;-2.55;79.97;98060.52;107515;1273;37574;-75
2022/02/28 07:35:41;;;;;;;20.20;10.90;;;;;;;-2.49;79.85;98063.94;107544;1273;32617;-75
2022/02/28 07:38:12;;;;;;;15.60;9.50;;;;;;;-2.48;79.83;98066.70;107485;1274;35251;-75
2022/02/28 07:40:43;;;;;;;22.10;11.20;;;;;;;-2.47;79.71;98069.55;107493;1273;50260;-75
2022/02/28 07:43:14;;;;;;;25.30;12.20;;;;;;;-2.45;79.79;98071.95;107474;1273;39254;-75
2022/02/28 07:45:46;;;;;;;21.70;12.40;;;;;;;-2.45;79.60;98075.05;107559;1273;44024;-75
2022/02/28 07:48:17;;;;;;;20.00;11.00;;;;;;;-2.46;79.36;98078.25;107519;1273;30350;-75
2022/02/28 07:50:47;;;;;;;20.60;11.70;;;;;;;-2.43;79.46;98079.16;107535;1273;46880;-75
2022/02/28 07:53:19;;;;;;;18.40;11.50;;;;;;;-2.40;79.41;98079.16;107500;1274;32886;-75
2022/02/28 07:55:50;;;;;;;19.70;11.30;;;;;;;-2.38;79.34;98079.38;107463;1273;32366;-75
2022/02/28 07:58:21;;;;;;;16.50;10.70;;;;;;;-2.35;79.52;98079.21;107421;1274;41714;-75
2022/02/28 08:00:52;;;;;;;19.20;10.90;;;;;;;-2.28;79.43;98083.20;107478;1273;43846;-75
2022/02/28 08:03:23;;;;;;;21.20;12.00;;;;;;;-2.27;79.14;98080.52;107416;1274;44832;-75
2022/02/28 08:05:54;;;;;;;17.70;10.40;;;;;;;-2.34;78.97;98082.83;107470;1274;43939;-75
2022/02/28 08:08:25;;;;;;;19.40;11.30;;;;;;;-2.39;78.79;98081.55;107424;1274;43357;-74
2022/02/28 08:10:56;;;;;;;17.80;12.50;;;;;;;-2.34;78.99;98084.17;107488;1274;33514;-75
2022/02/28 08:13:27;;;;;;;17.30;11.50;;;;;;;-2.07;79.16;98083.42;107475;1273;36516;-74
2022/02/28 08:16:00;;;;;;;19.10;12.50;;;;;;;-1.82;78.98;98085.08;107547;1272;37599;-75
2022/02/28 08:18:31;;;;;;;16.00;9.50;;;;;;;-1.21;79.32;98083.86;107479;1273;47322;-75
2022/02/28 08:21:02;;;;;;;17.10;10.70;;;;;;;-0.04;79.02;98079.41;107461;1273;42658;-75
2022/02/28 08:23:33;;;;;;;13.30;9.80;;;;;;;0.96;77.67;98076.71;107481;1274;35010;-75
2022/02/28 08:26:04;;;;;;;16.20;10.80;;;;;;;1.44;76.67;98075.25;107499;1273;33664;-75
2022/02/28 08:28:35;;;;;;;15.40;9.60;;;;;;;2.14;75.01;98080.63;107425;1274;44154;-75
2022/02/28 08:31:06;;;;;;;14.40;10.20;;;;;;;1.67;73.13;98091.77;107493;1273;36590;-75
2022/02/28 08:33:37;;;;;;;15.90;9.90;;;;;;;1.96;73.85;98092.27;107504;1273;47488;-75
2022/02/28 08:36:09;;;;;;;13.30;9.20;;;;;;;2.43;72.67;98083.00;107515;1273;37090;-75
2022/02/28 08:38:40;;;;;;;15.10;10.30;;;;;;;2.30;71.88;98091.11;107491;1273;36054;-75
2022/02/28 08:41:10;;;;;;;15.50;9.90;;;;;;;3.16;72.27;98090.73;107538;1273;31296;-75
2022/02/28 08:43:41;;;;;;;15.80;10.80;;;;;;;4.08;71.20;98085.02;107518;1273;42775;-75
2022/02/28 08:46:13;;;;;;;14.70;10.10;;;;;;;3.80;68.85;98091.98;107541;1273;52478;-75
2022/02/28 08:48:44;;;;;;;14.40;9.60;;;;;;;3.58;69.12;98091.96;107512;1273;45062;-75
2022/02/28 08:51:15;;;;;;;12.60;9.80;;;;;;;4.65;69.66;98087.54;107544;1273;42360;-75
2022/02/28 08:53:46;;;;;;;17.20;10.30;;;;;;;5.58;68.79;98088.83;107557;1273;42399;-74
2022/02/28 08:56:16;;;;;;;12.00;8.70;;;;;;;6.50;68.67;98088.02;107556;1272;40624;-74
2022/02/28 08:58:47;;;;;;;15.30;9.70;;;;;;;6.80;65.06;98086.54;107554;1272;31240;-74
2022/02/28 09:01:18;;;;;;;17.00;10.40;;;;;;;6.21;64.17;98095.83;107512;1273;41811;-74
2022/02/28 09:03:49;;;;;;;14.90;10.00;;;;;;;5.42;63.28;98095.48;107583;1273;35064;-75
2022/02/28 09:06:20;;;;;;;14.30;10.20;;;;;;;4.55;62.61;98100.70;107445;1274;33771;-75
2022/02/28 09:08:51;;;;;;;13.90;10.10;;;;;;;3.79;62.65;98103.69;107470;1273;44396;-75
2022/02/28 09:11:22;;;;;;;14.00;9.60;;;;;;;3.99;64.45;98100.98;107524;1273;32448;-74
2022/02/28 09:13:54;;;;;;;11.70;8.40;;;;;;;4.43;63.91;98099.33;107483;1273;41605;-75
2022/02/28 09:16:24;;;;;;;16.60;9.80;;;;;;;3.58;61.92;98099.51;107522;1273;31968;-75
2022/02/28 09:18:55;;;;;;;15.40;9.10;;;;;;;2.90;62.73;98103.09;107527;1273;35932;-74
2022/02/28 09:21:27;;;;;;;13.60;9.80;;;;;;;2.44;62.89;98108.14;107493;1272;30568;-74
2022/02/28 09:23:58;;;;;;;14.20;9.90;;;;;;;2.17;63.65;98108.10;107459;1273;45641;-74
2022/02/28 09:26:29;;;;;;;14.00;9.20;;;;;;;2.02;64.06;98116.86;107421;1274;66908;-74
2022/02/28 09:29:01;;;;;;;16.50;9.90;;;;;;;1.71;64.39;98120.05;107402;1274;28855;-74
2022/02/28 09:31:32;;;;;;;11.70;9.00;;;;;;;1.44;64.95;98122.17;107436;1274;34771;-74
2022/02/28 09:34:02;;;;;;;14.50;9.20;;;;;;;1.09;65.07;98125.23;107457;1274;41278;-74
2022/02/28 09:36:34;;;;;;;13.10;8.30;;;;;;;0.82;65.35;98129.79;107511;1274;38138;-74
2022/02/28 09:39:05;;;;;;;14.40;9.90;;;;;;;0.56;65.38;98138.23;107463;1273;40610;-74
2022/02/28 09:41:36;;;;;;;41.40;16.90;;;;;;;0.36;66.16;98142.67;107505;1273;49950;-74
2022/02/28 09:44:08;;;;;;;21.60;11.20;;;;;;;0.27;66.54;98144.05;107493;1273;43340;-74
2022/02/28 09:46:40;;;;;;;16.20;9.50;;;;;;;0.16;67.05;98142.98;107434;1273;91690;-74
2022/02/28 09:49:12;;;;;;;13.70;9.20;;;;;;;0.14;67.47;98142.55;107484;1273;32762;-74
2022/02/28 09:51:43;;;;;;;11.90;7.60;;;;;;;0.12;67.45;98142.02;107512;1271;40898;-74
2022/02/28 09:54:14;;;;;;;15.00;9.00;;;;;;;0.09;67.35;98142.77;107466;1273;39955;-74
2022/02/28 09:56:46;;;;;;;12.30;7.60;;;;;;;0.05;67.85;98140.95;107483;1274;46356;-74
2022/02/28 09:59:18;;;;;;;11.00;7.60;;;;;;;0.24;67.79;98140.55;107501;1273;30754;-74
2022/02/28 10:01:49;;;;;;;13.60;8.70;;;;;;;0.34;67.88;98141.09;107405;1274;37152;-74
2022/02/28 10:04:20;;;;;;;13.70;9.00;;;;;;;0.44;67.81;98134.56;107414;1273;49497;-74
2022/02/28 10:06:51;;;;;;;14.60;8.60;;;;;;;0.34;67.42;98132.38;107511;1273;33714;-75
2022/02/28 10:09:23;;;;;;;14.30;9.60;;;;;;;0.22;67.42;98135.02;107537;1273;36051;-74
2022/02/28 10:11:55;;;;;;;12.30;8.80;;;;;;;0.24;67.63;98139.10;107518;1273;39231;-74
2022/02/28 10:14:31;;;;;;;12.30;8.20;;;;;;;0.30;67.65;98140.34;107485;1272;39234;-74
2022/02/28 10:17:05;;;;;;;12.90;8.70;;;;;;;0.15;67.20;98135.46;107502;1273;44135;-74
2022/02/28 10:19:37;;;;;;;11.10;7.30;;;;;;;-0.01;67.59;98134.51;107571;1273;40146;-74
2022/02/28 10:22:09;;;;;;;13.60;9.00;;;;;;;-0.16;67.40;98142.00;107514;1273;29628;-74
2022/02/28 10:24:42;;;;;;;13.60;9.20;;;;;;;-0.31;67.98;98142.95;107491;1273;61375;-74
2022/02/28 10:27:18;;;;;;;15.00;9.70;;;;;;;-0.41;68.39;98142.34;107481;1273;44484;-74
2022/02/28 10:29:49;;;;;;;15.30;9.80;;;;;;;-0.44;68.61;98138.33;107518;1273;42773;-74
2022/02/28 10:32:25;;;;;;;13.80;8.30;;;;;;;-0.50;68.28;98131.86;107407;1273;33131;-74
2022/02/28 10:37:51;;;;;;;11.10;6.80;;;;;;;-0.67;68.28;98134.60;107463;1273;43370;-75
2022/02/28 10:40:34;;;;;;;8.50;6.20;;;;;;;-0.71;68.38;98135.86;107487;1273;44217;-74
2022/02/28 10:43:07;;;;;;;12.60;6.50;;;;;;;-0.80;68.33;98136.27;107463;1273;68677;-74
2022/02/28 10:45:40;;;;;;;13.70;8.00;;;;;;;-0.96;68.62;98140.77;107500;1273;31636;-74
2022/02/28 10:48:11;;;;;;;12.70;8.70;;;;;;;-0.99;69.38;98141.45;107428;1273;43336;-74
2022/02/28 10:50:43;;;;;;;11.70;8.00;;;;;;;-0.98;69.47;98143.58;107474;1273;36736;-74
2022/02/28 10:53:16;;;;;;;11.80;7.80;;;;;;;-1.04;69.69;98146.11;107522;1270;44045;-74
2022/02/28 10:55:51;;;;;;;12.10;6.60;;;;;;;-1.01;70.11;98149.81;107526;1273;42227;-74
2022/02/28 10:58:24;;;;;;;12.00;7.70;;;;;;;-0.97;70.15;98148.75;107486;1273;43330;-74
2022/02/28 11:00:58;;;;;;;18.00;10.00;;;;;;;-0.88;71.04;98148.55;107554;1273;37790;-74
2022/02/28 11:03:44;;;;;;;12.50;7.30;;;;;;;-0.60;71.22;98149.84;107645;1273;29919;-74
2022/02/28 11:06:22;;;;;;;21.40;11.50;;;;;;;-0.16;71.63;98147.54;107554;1273;47190;-74
2022/02/28 11:08:54;;;;;;;10.90;5.60;;;;;;;0.46;71.33;98143.08;107494;1273;36393;-74
2022/02/28 11:11:25;;;;;;;10.50;5.40;;;;;;;0.89;70.26;98137.97;107516;1273;37897;-73
2022/02/28 11:13:57;;;;;;;7.80;4.50;;;;;;;1.38;69.81;98133.64;107519;1273;34234;-73
2022/02/28 11:16:30;;;;;;;7.30;4.80;;;;;;;1.60;68.17;98136.20;107514;1273;43918;-74
2022/02/28 11:19:04;;;;;;;6.40;4.70;;;;;;;1.56;67.43;98131.38;107515;1273;45191;-74
2022/02/28 11:21:35;;;;;;;9.10;5.00;;;;;;;1.52;67.26;98134.44;107534;1272;41267;-74
2022/02/28 11:24:07;;;;;;;8.70;5.50;;;;;;;1.54;67.42;98140.10;107500;1273;60427;-73
2022/02/28 11:26:38;;;;;;;9.10;5.70;;;;;;;1.61;67.43;98141.92;107499;1273;50901;-73
2022/02/28 11:29:10;;;;;;;8.10;5.70;;;;;;;1.46;66.93;98144.73;107404;1273;51093;-74
2022/02/28 11:31:41;;;;;;;7.20;5.20;;;;;;;1.16;66.67;98147.45;107397;1273;53054;-74
2022/02/28 11:34:22;;;;;;;9.80;6.30;;;;;;;0.74;66.56;98159.14;107483;1273;44155;-74
2022/02/28 11:37:00;;;;;;;8.40;5.50;;;;;;;0.45;66.96;98162.59;107495;1273;67447;-74